Time;durP1;ratioP1;P1;durP2;ratioP2;P2;SDS_P1;SDS_P2;PMS_P1;PMS_P2;Temp;Humidity;BMP_temperature;BMP_pressure;BME280_temperature;BME280_humidity;BME280_pressure;Samples;Min_cycle;Max_cycle;Signal;HPM_P1;HPM_P2
2022/06/12 00:00:14;;;;;;;31.27;6.50;;;;;;;14.23;100.00;101944.06;5083707;28;20066;-77
2022/06/12 00:02:40;;;;;;;26.75;7.38;;;;;;;14.13;100.00;101943.00;5073551;28;20116;-77
2022/06/12 00:05:06;;;;;;;26.02;7.03;;;;;;;14.25;100.00;101943.91;5076080;28;20194;-77
2022/06/12 00:07:31;;;;;;;34.75;7.18;;;;;;;14.25;100.00;101947.56;5058170;28;20067;-77
2022/06/12 00:09:57;;;;;;;38.58;8.32;;;;;;;14.48;100.00;101958.69;5078862;28;20121;-77
2022/06/12 00:12:23;;;;;;;44.33;8.82;;;;;;;14.39;100.00;101952.00;5085388;28;20070;-77
2022/06/12 00:14:48;;;;;;;47.70;9.45;;;;;;;14.43;100.00;101952.63;5076711;28;20040;-77
2022/06/12 00:17:14;;;;;;;47.92;10.20;;;;;;;14.19;100.00;101949.94;5087074;28;20040;-77
2022/06/12 00:19:44;;;;;;;40.00;8.95;;;;;;;14.28;100.00;101950.09;5089045;28;20024;-77
2022/06/12 00:22:10;;;;;;;45.63;9.02;;;;;;;14.45;100.00;101957.03;5072634;28;20032;-77
2022/06/12 00:24:37;;;;;;;39.70;8.18;;;;;;;14.22;100.00;101945.06;5076030;28;20178;-77
2022/06/12 00:27:03;;;;;;;34.05;8.60;;;;;;;14.20;100.00;101946.16;5089775;28;20360;-77
2022/06/12 00:29:34;;;;;;;36.45;8.27;;;;;;;14.34;100.00;101943.22;5055694;28;20100;-77
2022/06/12 00:32:04;;;;;;;33.97;8.75;;;;;;;14.12;100.00;101942.13;5078691;28;20501;-77
2022/06/12 00:34:35;;;;;;;25.30;8.02;;;;;;;14.06;100.00;101936.22;5074417;28;20042;-77
2022/06/12 00:37:02;;;;;;;31.67;8.60;;;;;;;14.10;100.00;101940.47;5081104;28;20024;-77
2022/06/12 00:39:28;;;;;;;36.72;7.95;;;;;;;13.87;100.00;101942.22;5090370;28;20043;-77
2022/06/12 00:41:57;;;;;;;36.70;8.48;;;;;;;13.74;100.00;101942.28;5095044;28;20093;-77
2022/06/12 00:44:30;;;;;;;35.17;8.82;;;;;;;13.73;100.00;101938.66;5094256;28;20088;-77
2022/06/12 00:46:58;;;;;;;40.03;8.93;;;;;;;13.81;100.00;101937.19;5058321;28;20103;-77
2022/06/12 00:49:33;;;;;;;48.92;9.10;;;;;;;13.64;100.00;101933.81;5083249;28;20119;-77
2022/06/12 00:52:10;;;;;;;33.47;9.40;;;;;;;13.81;100.00;101939.94;5075167;28;20037;-76
2022/06/12 00:54:37;;;;;;;40.53;9.23;;;;;;;13.79;100.00;101951.09;5073948;28;20455;-77
2022/06/12 00:57:06;;;;;;;31.75;8.52;;;;;;;13.77;100.00;101948.44;5073505;28;20043;-77
2022/06/12 00:59:34;;;;;;;29.25;8.10;;;;;;;13.87;100.00;101947.75;5085178;28;20028;-76
2022/06/12 01:02:00;;;;;;;23.80;6.90;;;;;;;13.83;100.00;101944.34;5071605;28;20040;-77
2022/06/12 01:07:15;;;;;;;41.65;9.85;;;;;;;13.60;100.00;101946.06;5073109;28;20039;-76
2022/06/12 01:09:43;;;;;;;34.47;9.00;;;;;;;13.55;100.00;101938.16;5077783;28;20039;-77
2022/06/12 01:12:18;;;;;;;29.23;8.75;;;;;;;13.34;100.00;101937.00;5056766;28;20024;-77
2022/06/12 01:14:51;;;;;;;40.08;9.18;;;;;;;13.38;100.00;101939.41;5083127;28;20028;-76
2022/06/12 01:17:18;;;;;;;;;;;;;;;13.51;100.00;101939.41;5075922;28;20368;-76
2022/06/12 01:19:51;;;;;;;28.88;7.68;;;;;;;13.46;100.00;101946.22;5073567;28;20338;-77
2022/06/12 01:22:31;;;;;;;23.35;7.75;;;;;;;13.38;100.00;101939.41;5074154;28;20407;-78
2022/06/12 01:25:18;;;;;;;33.97;9.40;;;;;;;13.33;100.00;101941.63;5077335;28;20031;-77
2022/06/12 01:28:21;;;;;;;29.65;7.70;;;;;;;13.20;100.00;101943.50;5083747;28;20062;-77
2022/06/12 01:31:02;;;;;;;31.83;8.48;;;;;;;13.20;100.00;101946.25;5087269;28;20032;-77
2022/06/12 01:33:35;;;;;;;35.92;8.55;;;;;;;12.95;100.00;101950.72;5072114;28;20097;-77
2022/06/12 01:36:04;;;;;;;33.67;8.53;;;;;;;12.86;100.00;101945.91;5073288;28;20068;-77
2022/06/12 01:39:07;;;;;;;25.63;7.68;;;;;;;12.97;100.00;101950.63;5056525;28;20032;-77
2022/06/12 01:41:41;;;;;;;26.52;8.30;;;;;;;12.96;100.00;101947.00;5072651;28;20036;-77
2022/06/12 01:44:18;;;;;;;40.53;8.70;;;;;;;13.02;100.00;101952.06;5070202;28;20040;-77
2022/06/12 01:46:58;;;;;;;28.13;8.10;;;;;;;12.96;100.00;101938.75;5087278;28;20460;-77
2022/06/12 01:49:33;;;;;;;30.00;7.95;;;;;;;12.98;100.00;101941.41;5085314;28;20059;-77
2022/06/12 01:52:05;;;;;;;35.33;8.73;;;;;;;12.86;100.00;101937.66;5073127;28;20115;-77
2022/06/12 01:54:41;;;;;;;32.67;8.40;;;;;;;12.81;100.00;101932.50;5063746;28;20031;-77
2022/06/12 01:57:15;;;;;;;26.75;8.27;;;;;;;12.71;100.00;101925.91;5075022;28;20036;-77
2022/06/12 01:59:54;;;;;;;28.33;8.50;;;;;;;12.67;100.00;101933.50;5086693;28;20090;-77
2022/06/12 02:02:28;;;;;;;31.92;8.10;;;;;;;12.54;100.00;101918.84;5087537;28;20107;-77
2022/06/12 02:05:10;;;;;;;31.10;8.20;;;;;;;12.37;100.00;101928.25;5073259;28;20107;-77
2022/06/12 02:07:39;;;;;;;23.30;8.32;;;;;;;12.44;100.00;101923.22;5067716;28;20041;-77
2022/06/12 02:10:28;;;;;;;27.52;9.48;;;;;;;12.55;100.00;101927.97;5064066;28;20169;-77
2022/06/12 02:13:13;;;;;;;25.70;9.25;;;;;;;12.29;100.00;101927.91;5060755;28;20028;-77
2022/06/12 02:15:45;;;;;;;25.90;8.23;;;;;;;12.34;100.00;101927.59;5060040;28;20033;-77
2022/06/12 02:18:20;;;;;;;23.08;7.78;;;;;;;12.57;100.00;101935.09;5074271;28;20040;-77
2022/06/12 02:20:52;;;;;;;21.55;6.90;;;;;;;12.53;100.00;101936.31;5083591;28;20032;-77
2022/06/12 02:23:34;;;;;;;26.05;8.38;;;;;;;12.37;100.00;101924.66;5094057;28;20107;-77
2022/06/12 02:26:01;;;;;;;33.25;8.48;;;;;;;12.61;100.00;101922.94;5087576;28;20029;-77
2022/06/12 02:28:35;;;;;;;23.30;7.15;;;;;;;12.36;100.00;101928.38;5082682;28;20059;-77
2022/06/12 02:31:07;;;;;;;27.50;7.43;;;;;;;12.60;100.00;101934.88;5097925;28;20024;-77
2022/06/12 02:33:38;;;;;;;28.40;8.20;;;;;;;12.52;100.00;101930.94;5089459;28;20032;-77
2022/06/12 02:36:10;;;;;;;21.83;7.18;;;;;;;12.44;100.00;101932.34;5095976;28;20044;-76
2022/06/12 02:38:46;;;;;;;24.73;7.22;;;;;;;12.38;100.00;101934.63;5096752;28;20116;-76
2022/06/12 02:41:34;;;;;;;30.20;9.27;;;;;;;12.20;100.00;101932.19;5080387;28;20487;-76
2022/06/12 02:44:08;;;;;;;26.27;7.85;;;;;;;12.41;100.00;101927.09;5081108;28;20071;-76
2022/06/12 02:46:39;;;;;;;28.13;8.50;;;;;;;12.30;100.00;101935.19;5078036;28;20460;-77
2022/06/12 02:49:06;;;;;;;26.33;8.23;;;;;;;12.52;100.00;101939.19;5076616;28;20028;-76
2022/06/12 02:51:47;;;;;;;23.92;7.57;;;;;;;12.44;100.00;101931.47;5075151;28;20046;-76
2022/06/12 02:54:27;;;;;;;24.42;7.68;;;;;;;12.31;100.00;101931.44;5075944;28;20024;-76
2022/06/12 02:57:10;;;;;;;22.25;7.10;;;;;;;12.35;100.00;101927.50;5075485;28;20391;-76
2022/06/12 02:59:51;;;;;;;23.02;7.05;;;;;;;12.46;100.00;101922.13;5084119;28;20101;-77
2022/06/12 03:02:35;;;;;;;26.67;8.05;;;;;;;12.43;100.00;101919.59;5086417;28;20047;-77
2022/06/12 03:05:05;;;;;;;28.00;9.65;;;;;;;12.36;100.00;101920.13;5087031;28;20435;-77
2022/06/12 03:07:31;;;;;;;33.90;10.40;;;;;;;12.14;100.00;101918.88;5080259;28;20025;-77
2022/06/12 03:10:01;;;;;;;23.83;8.82;;;;;;;12.36;100.00;101921.00;5081322;28;20491;-77
2022/06/12 03:12:28;;;;;;;26.67;8.23;;;;;;;12.31;100.00;101915.84;5077544;28;20036;-77
2022/06/12 03:14:55;;;;;;;38.33;8.60;;;;;;;12.49;100.00;101915.53;5092330;28;20490;-77
2022/06/12 03:17:21;;;;;;;26.40;8.70;;;;;;;12.23;100.00;101920.09;5076762;28;20032;-77
2022/06/12 03:19:54;;;;;;;35.42;8.82;;;;;;;12.10;100.00;101918.22;5093247;28;20117;-77
2022/06/12 03:22:40;;;;;;;26.10;9.60;;;;;;;11.99;100.00;101939.16;5079053;28;20100;-77
2022/06/12 03:25:22;;;;;;;39.83;10.82;;;;;;;12.04;100.00;101928.72;5073680;28;20221;-77
2022/06/12 03:27:55;;;;;;;39.95;11.23;;;;;;;12.01;100.00;101931.69;5085772;28;20185;-77
2022/06/12 03:30:23;;;;;;;32.92;11.70;;;;;;;12.04;100.00;101936.97;5069967;28;20047;-77
2022/06/12 03:33:07;;;;;;;53.83;14.02;;;;;;;12.08;100.00;101939.38;5086980;28;20032;-77
2022/06/12 03:35:47;;;;;;;36.00;12.13;;;;;;;12.13;100.00;101939.97;5094350;28;20150;-77
2022/06/12 03:38:19;;;;;;;37.22;11.82;;;;;;;12.40;100.00;101927.19;5096109;28;20093;-77
2022/06/12 03:40:48;;;;;;;41.67;11.95;;;;;;;12.43;100.00;101936.09;5058470;28;20039;-77
2022/06/12 03:43:25;;;;;;;43.28;12.10;;;;;;;12.52;100.00;101929.06;5077916;28;20082;-77
2022/06/12 03:46:00;;;;;;;47.85;12.35;;;;;;;12.56;100.00;101930.63;5093648;28;20042;-77
2022/06/12 03:48:37;;;;;;;44.45;10.85;;;;;;;12.49;100.00;101937.50;5063690;28;20550;-76
2022/06/12 03:51:05;;;;;;;41.03;10.48;;;;;;;12.34;100.00;101933.09;5073035;28;20032;-77
2022/06/12 03:53:53;;;;;;;36.00;11.13;;;;;;;12.33;100.00;101932.22;5075179;28;20025;-77
2022/06/12 03:59:42;;;;;;;38.35;10.07;;;;;;;12.47;100.00;101925.75;5074972;28;20106;-76
2022/06/12 04:02:12;;;;;;;34.92;9.68;;;;;;;12.43;100.00;101933.34;5073787;28;20414;-77
2022/06/12 04:04:40;;;;;;;36.95;9.75;;;;;;;12.42;100.00;101931.56;5095722;28;20032;-76
2022/06/12 04:07:09;;;;;;;34.83;10.07;;;;;;;12.49;100.00;101932.00;5091361;28;20077;-77
2022/06/12 04:09:40;;;;;;;45.25;10.73;;;;;;;12.55;100.00;101936.22;5088881;28;20066;-77
2022/06/12 04:12:18;;;;;;;58.65;13.25;;;;;;;12.54;100.00;101934.44;5079338;28;20309;-77
2022/06/12 04:14:53;;;;;;;39.95;10.20;;;;;;;12.60;100.00;101920.28;5096724;28;20399;-77
2022/06/12 04:17:21;;;;;;;42.08;10.93;;;;;;;12.65;100.00;101929.06;5086557;28;20479;-77
2022/06/12 04:20:00;;;;;;;37.53;11.13;;;;;;;12.72;100.00;101924.03;5073792;28;20035;-77
2022/06/12 04:22:43;;;;;;;38.42;10.00;;;;;;;12.88;100.00;101925.56;5057210;28;20037;-77
2022/06/12 04:25:26;;;;;;;40.85;10.55;;;;;;;12.89;100.00;101926.47;5088175;28;20108;-77
2022/06/12 04:27:52;;;;;;;33.28;8.93;;;;;;;12.88;100.00;101933.81;5090761;28;20043;-78
2022/06/12 04:30:23;;;;;;;30.15;9.15;;;;;;;12.88;100.00;101932.94;5090521;28;20452;-76
2022/06/12 04:33:08;;;;;;;36.00;9.45;;;;;;;12.81;100.00;101935.25;5079362;28;20024;-76
2022/06/12 04:35:41;;;;;;;28.17;9.60;;;;;;;12.94;100.00;101935.25;5107206;28;20040;-77
2022/06/12 04:38:07;;;;;;;35.58;8.20;;;;;;;13.01;100.00;101938.44;5073303;28;20383;-77
2022/06/12 04:40:32;;;;;;;32.42;9.02;;;;;;;13.00;100.00;101939.41;5064194;28;20033;-76
2022/06/12 04:42:58;;;;;;;26.52;8.68;;;;;;;12.95;100.00;101934.25;5084669;28;20108;-77
2022/06/12 04:45:23;;;;;;;28.20;8.32;;;;;;;12.98;100.00;101942.28;5072595;28;20064;-77
2022/06/12 04:47:49;;;;;;;25.27;9.43;;;;;;;13.04;100.00;101940.97;5072709;28;20116;-77
2022/06/12 04:50:16;;;;;;;36.95;8.77;;;;;;;13.11;100.00;101944.16;5085500;28;20044;-77
2022/06/12 04:52:42;;;;;;;28.08;8.98;;;;;;;13.19;100.00;101955.47;5080635;28;20032;-77
2022/06/12 04:55:08;;;;;;;29.63;8.82;;;;;;;13.30;100.00;101949.16;5073983;28;20442;-77
2022/06/12 04:57:33;;;;;;;32.88;9.30;;;;;;;13.25;100.00;101955.03;5054168;28;20036;-76
2022/06/12 04:59:59;;;;;;;21.88;8.02;;;;;;;13.34;100.00;101948.88;5088750;28;20040;-77
2022/06/12 05:02:25;;;;;;;23.92;7.10;;;;;;;13.31;100.00;101948.19;5084860;28;20085;-77
2022/06/12 05:04:51;;;;;;;27.92;7.72;;;;;;;13.42;100.00;101945.56;5093052;28;20032;-77
2022/06/12 05:07:17;;;;;;;23.58;7.93;;;;;;;13.49;100.00;101954.25;5091311;28;20044;-77
2022/06/12 05:09:43;;;;;;;25.67;5.65;;;;;;;13.59;100.00;101942.47;5084883;28;20032;-77
2022/06/12 05:12:12;;;;;;;29.98;7.35;;;;;;;13.81;100.00;101948.19;5057038;28;20030;-77
2022/06/12 05:14:37;;;;;;;22.90;5.65;;;;;;;13.68;100.00;101949.13;5085246;28;20066;-76
2022/06/12 05:17:07;;;;;;;26.25;5.88;;;;;;;13.77;100.00;101942.94;5075808;28;20056;-77
2022/06/12 05:19:35;;;;;;;36.28;6.03;;;;;;;13.90;100.00;101942.00;5075347;28;20372;-77
2022/06/12 05:22:02;;;;;;;38.45;6.32;;;;;;;14.18;100.00;101939.91;5067831;28;20028;-77
2022/06/12 05:24:28;;;;;;;29.10;5.88;;;;;;;14.49;100.00;101943.91;5082616;28;20032;-77
2022/06/12 05:26:54;;;;;;;21.00;5.68;;;;;;;14.78;100.00;101940.75;5091551;28;20042;-77
2022/06/12 05:29:26;;;;;;;21.45;5.53;;;;;;;14.97;100.00;101935.53;5056812;28;20041;-77
2022/06/12 05:31:52;;;;;;;25.42;5.82;;;;;;;14.88;100.00;101937.13;5072791;28;20043;-77
2022/06/12 05:34:18;;;;;;;29.58;6.68;;;;;;;14.91;100.00;101944.28;5073568;28;20047;-77
2022/06/12 05:36:44;;;;;;;32.90;6.15;;;;;;;14.99;100.00;101946.44;5074349;28;20044;-78
2022/06/12 05:39:10;;;;;;;34.78;5.75;;;;;;;15.05;100.00;101946.81;5081878;28;20035;-77
2022/06/12 05:41:36;;;;;;;27.65;6.70;;;;;;;15.70;100.00;101938.75;5080322;28;20036;-78
2022/06/12 05:44:02;;;;;;;17.38;6.15;;;;;;;15.92;100.00;101939.72;5077868;28;20085;-79
2022/06/12 05:46:27;;;;;;;25.17;6.15;;;;;;;15.99;100.00;101943.75;5076001;28;20078;-77
2022/06/12 05:48:53;;;;;;;32.83;6.22;;;;;;;16.29;100.00;101943.00;5079576;28;20024;-76
2022/06/12 05:51:19;;;;;;;25.77;5.93;;;;;;;16.12;100.00;101949.13;5077390;28;20119;-75
2022/06/12 05:53:46;;;;;;;24.92;5.63;;;;;;;16.80;100.00;101948.78;5074832;28;20142;-75
2022/06/12 05:56:15;;;;;;;25.60;5.38;;;;;;;17.14;100.00;101963.28;5071287;28;20036;-76
2022/06/12 05:58:42;;;;;;;25.90;5.53;;;;;;;16.92;100.00;101949.59;5088781;28;20031;-77
2022/06/12 06:01:11;;;;;;;30.48;6.28;;;;;;;16.89;100.00;101968.25;5078451;28;20045;-77
2022/06/12 06:03:38;;;;;;;37.25;6.40;;;;;;;16.81;100.00;101956.06;5080687;28;20039;-76
2022/06/12 06:06:06;;;;;;;30.45;6.18;;;;;;;16.58;100.00;101958.06;5088661;28;20047;-76
2022/06/12 06:08:32;;;;;;;21.50;5.85;;;;;;;16.43;100.00;101958.41;5085590;28;20124;-76
2022/06/12 06:10:58;;;;;;;31.00;6.93;;;;;;;17.20;100.00;101956.31;5076150;28;20036;-76
2022/06/12 06:13:23;;;;;;;34.75;5.72;;;;;;;17.48;100.00;101951.94;5059854;28;20043;-76
2022/06/12 06:15:50;;;;;;;33.30;6.20;;;;;;;18.28;100.00;101969.53;5078406;28;20092;-76
2022/06/12 06:18:17;;;;;;;29.15;6.57;;;;;;;18.47;100.00;101974.19;5070472;28;20041;-76
2022/06/12 06:20:42;;;;;;;47.17;7.47;;;;;;;18.11;100.00;101961.91;5072174;28;20036;-76
2022/06/12 06:23:09;;;;;;;29.75;5.85;;;;;;;18.17;100.00;101964.97;5069431;28;20040;-77
2022/06/12 06:25:36;;;;;;;38.30;7.70;;;;;;;17.57;100.00;101976.00;5084808;28;20437;-76
2022/06/12 06:28:02;;;;;;;45.90;10.43;;;;;;;17.79;100.00;101966.63;5071148;28;20039;-77
2022/06/12 06:30:28;;;;;;;30.50;7.07;;;;;;;18.03;100.00;101968.16;5078911;28;20032;-76
2022/06/12 06:32:56;;;;;;;41.35;6.80;;;;;;;18.06;100.00;101956.78;5078622;28;20023;-77
2022/06/12 06:35:22;;;;;;;50.05;7.57;;;;;;;17.88;100.00;101964.06;5078073;28;20040;-76
2022/06/12 06:37:50;;;;;;;36.25;7.57;;;;;;;18.56;100.00;101969.66;5085813;28;20098;-76
2022/06/12 06:40:17;;;;;;;30.35;7.25;;;;;;;18.39;100.00;101973.16;5089893;28;20448;-76
2022/06/12 06:42:43;;;;;;;40.53;6.82;;;;;;;18.34;100.00;101970.81;5074783;28;20032;-76
2022/06/12 06:47:59;;;;;;;39.10;7.07;;;;;;;19.43;100.00;101974.19;5084558;28;20121;-76
2022/06/12 06:50:25;;;;;;;41.40;6.95;;;;;;;19.54;100.00;101975.88;5071593;28;20043;-77
2022/06/12 06:52:50;;;;;;;35.90;7.20;;;;;;;19.87;100.00;101973.56;5080585;28;20476;-76
2022/06/12 06:55:17;;;;;;;52.40;8.13;;;;;;;20.08;100.00;101977.97;5076067;28;20051;-77
2022/06/12 06:57:45;;;;;;;42.13;7.72;;;;;;;20.03;100.00;101970.09;5080295;28;20028;-77
2022/06/12 07:00:15;;;;;;;41.85;8.63;;;;;;;20.25;100.00;101970.66;5086352;28;20040;-75
2022/06/12 07:02:41;;;;;;;43.80;8.27;;;;;;;20.17;100.00;101975.13;5065890;28;20031;-76
2022/06/12 07:05:07;;;;;;;45.00;8.00;;;;;;;19.88;100.00;101969.75;5071201;28;20507;-76
2022/06/12 07:07:34;;;;;;;47.53;8.30;;;;;;;19.64;100.00;101978.63;5049553;28;20043;-76
2022/06/12 07:10:01;;;;;;;42.55;8.45;;;;;;;20.41;100.00;101981.09;5074334;28;20032;-76
2022/06/12 07:12:28;;;;;;;46.40;8.45;;;;;;;21.18;100.00;101973.06;5075962;28;20472;-76
2022/06/12 07:14:54;;;;;;;49.60;8.77;;;;;;;21.24;100.00;101981.63;5075369;28;20094;-76
2022/06/12 07:17:21;;;;;;;53.58;8.63;;;;;;;21.05;100.00;101979.97;5091631;28;20038;-77
2022/06/12 07:19:47;;;;;;;51.58;8.32;;;;;;;21.13;100.00;101973.56;5091236;28;20037;-77
2022/06/12 07:22:12;;;;;;;36.78;9.30;;;;;;;21.18;100.00;101976.72;5082423;28;20139;-77
2022/06/12 07:24:37;;;;;;;49.65;8.18;;;;;;;20.65;100.00;101967.44;5082048;28;20044;-77
2022/06/12 07:27:04;;;;;;;50.83;7.85;;;;;;;21.26;100.00;101967.53;5074854;28;20047;-77
2022/06/12 07:29:29;;;;;;;52.53;9.07;;;;;;;21.21;100.00;101961.59;5080973;28;20056;-77
2022/06/12 07:31:55;;;;;;;47.72;6.97;;;;;;;21.45;100.00;101969.25;5058827;28;20029;-78
2022/06/12 07:34:21;;;;;;;55.72;8.55;;;;;;;21.40;100.00;101969.72;5056398;28;20146;-75
2022/06/12 07:36:50;;;;;;;68.03;8.18;;;;;;;21.69;100.00;101965.69;5058917;28;20044;-77
2022/06/12 07:39:22;;;;;;;50.10;7.38;;;;;;;21.71;100.00;101971.13;5084073;28;20044;-77
2022/06/12 07:41:49;;;;;;;58.05;7.82;;;;;;;21.82;100.00;101971.72;5066477;28;20024;-75
2022/06/12 07:44:20;;;;;;;55.38;8.18;;;;;;;22.63;98.11;101976.78;5076535;28;20040;-76
2022/06/12 07:46:46;;;;;;;55.10;9.10;;;;;;;22.52;100.00;101983.59;5089854;28;20067;-76
2022/06/12 07:49:11;;;;;;;59.78;8.40;;;;;;;22.04;100.00;101977.72;5089172;28;20422;-77
2022/06/12 07:51:37;;;;;;;42.92;8.05;;;;;;;22.76;100.00;101971.56;5073944;28;20040;-77
2022/06/12 07:54:03;;;;;;;52.88;8.02;;;;;;;22.07;100.00;101970.91;5094443;28;20071;-77
2022/06/12 07:56:28;;;;;;;54.92;7.85;;;;;;;22.26;98.69;101966.94;5055284;28;20399;-77
2022/06/12 07:58:54;;;;;;;59.17;8.15;;;;;;;22.34;99.01;101962.28;5081308;28;20032;-77
2022/06/12 08:01:22;;;;;;;63.22;6.85;;;;;;;23.45;93.86;101965.56;5075266;28;20041;-77
2022/06/12 08:03:48;;;;;;;57.03;7.60;;;;;;;23.52;92.08;101979.69;5086918;28;20035;-77
2022/06/12 08:06:14;;;;;;;53.20;8.45;;;;;;;23.16;93.98;101975.38;5089214;28;20131;-77
2022/06/12 08:08:42;;;;;;;47.92;6.90;;;;;;;23.09;93.82;101977.16;5076858;28;20119;-77
2022/06/12 08:11:07;;;;;;;50.28;6.28;;;;;;;22.37;96.44;101964.72;5086920;28;20086;-77
2022/06/12 08:13:33;;;;;;;48.45;6.38;;;;;;;22.90;95.02;101978.34;5059249;28;20040;-77
2022/06/12 08:15:59;;;;;;;51.10;7.65;;;;;;;23.24;88.57;101978.16;5057046;28;20368;-77
2022/06/12 08:18:25;;;;;;;48.42;7.03;;;;;;;23.33;88.41;101973.41;5090542;28;20031;-77
2022/06/12 08:20:57;;;;;;;58.08;8.80;;;;;;;22.23;93.42;101967.28;5075785;28;20043;-77
2022/06/12 08:23:28;;;;;;;57.88;7.32;;;;;;;23.29;90.08;101967.31;5081484;28;20039;-77
2022/06/12 08:25:57;;;;;;;50.70;8.98;;;;;;;23.52;89.39;101969.34;5090711;28;20039;-78
2022/06/12 08:28:25;;;;;;;53.38;6.90;;;;;;;22.63;92.58;101973.97;5078286;28;20077;-82
2022/06/12 08:30:51;;;;;;;46.22;7.10;;;;;;;23.20;89.76;101974.00;5072153;28;20044;-83
2022/06/12 08:33:17;;;;;;;41.70;6.38;;;;;;;23.51;87.74;101964.81;5067527;28;20388;-84
2022/06/12 08:35:43;;;;;;;43.15;5.95;;;;;;;24.20;83.95;101972.56;5079698;28;20064;-83
2022/06/12 08:38:08;;;;;;;65.90;7.35;;;;;;;23.52;84.35;101963.75;5083734;28;20029;-83
2022/06/12 08:40:50;;;;;;;46.25;5.82;;;;;;;24.37;81.39;101959.34;5069827;28;20526;-83
2022/06/12 08:43:38;;;;;;;50.78;5.53;;;;;;;23.75;84.78;101960.19;5081367;28;20037;-83
2022/06/12 08:46:11;;;;;;;33.95;5.93;;;;;;;22.85;88.90;101964.91;5082720;28;20114;-82
2022/06/12 08:48:46;;;;;;;39.25;5.63;;;;;;;23.20;86.09;101959.13;5075556;28;20032;-82
2022/06/12 08:51:25;;;;;;;47.72;6.43;;;;;;;23.10;87.45;101959.31;5082292;28;20029;-82
2022/06/12 08:54:04;;;;;;;49.40;6.20;;;;;;;22.64;90.63;101947.81;5072785;28;20481;-79
2022/06/12 08:56:47;;;;;;;41.92;4.97;;;;;;;23.06;88.96;101955.13;5085034;28;20044;-80
2022/06/12 08:59:21;;;;;;;38.92;5.65;;;;;;;23.35;88.38;101954.56;5083421;28;20024;-80
2022/06/12 09:01:48;;;;;;;44.13;5.78;;;;;;;22.89;87.04;101952.34;5086754;28;20487;-82
2022/06/12 09:04:17;;;;;;;36.78;5.60;;;;;;;23.91;80.70;101946.16;5063334;28;20807;-83
2022/06/12 09:06:47;;;;;;;35.28;5.32;;;;;;;22.82;86.58;101948.50;5091245;28;20069;-83
2022/06/12 09:09:31;;;;;;;39.88;5.70;;;;;;;22.35;88.98;101940.81;5064519;28;20372;-83
2022/06/12 09:12:11;;;;;;;31.55;4.50;;;;;;;21.64;91.82;101945.81;5085375;28;20100;-83
2022/06/12 09:14:59;;;;;;;29.25;4.95;;;;;;;21.25;96.53;101941.63;5093312;28;20032;-83
2022/06/12 09:17:48;;;;;;;27.80;4.40;;;;;;;21.66;92.26;101946.53;5095779;28;20107;-82
2022/06/12 09:20:28;;;;;;;32.17;4.32;;;;;;;22.16;84.94;101942.84;5085488;28;20047;-82
2022/06/12 09:22:57;;;;;;;33.72;4.20;;;;;;;21.73;82.55;101941.19;5074525;28;20029;-80
2022/06/12 09:25:32;;;;;;;32.33;4.35;;;;;;;21.57;89.11;101941.97;5077067;28;20451;-81
2022/06/12 09:28:17;;;;;;;34.97;5.68;;;;;;;21.81;84.96;101930.91;5085780;28;20059;-80
2022/06/12 09:30:51;;;;;;;35.42;4.78;;;;;;;22.56;82.34;101938.41;5067137;28;20325;-80
2022/06/12 09:33:21;;;;;;;34.22;5.47;;;;;;;22.43;84.52;101939.94;5077851;28;20029;-79
2022/06/12 09:36:10;;;;;;;30.25;4.88;;;;;;;22.39;85.98;101939.44;5060886;28;20386;-79
2022/06/12 09:38:46;;;;;;;30.38;3.58;;;;;;;23.40;78.77;101938.13;5079091;28;20496;-79
2022/06/12 09:41:24;;;;;;;49.17;5.53;;;;;;;22.52;84.85;101937.00;5082093;28;20059;-79
2022/06/12 09:44:14;;;;;;;39.25;5.07;;;;;;;23.71;80.70;101937.31;5076156;28;20024;-79
2022/06/12 09:46:51;;;;;;;29.70;4.63;;;;;;;23.51;82.89;101936.84;5081599;28;20032;-79
2022/06/12 09:49:46;;;;;;;34.90;5.40;;;;;;;23.21;84.01;101939.41;5081028;28;20055;-79
2022/06/12 09:52:42;;;;;;;36.63;5.55;;;;;;;22.65;86.46;101935.63;5074764;28;20039;-78
2022/06/12 09:55:22;;;;;;;36.75;5.15;;;;;;;23.36;83.18;101941.47;5084946;28;20040;-79
2022/06/12 09:58:11;;;;;;;26.33;5.97;;;;;;;23.54;79.92;101935.63;5077259;28;20131;-80
2022/06/12 10:01:04;;;;;;;28.45;4.57;;;;;;;24.33;68.62;101933.63;5094436;28;20028;-79
2022/06/12 10:03:42;;;;;;;32.65;4.38;;;;;;;22.85;71.83;101941.72;5070437;28;20115;-79
2022/06/12 10:06:25;;;;;;;38.85;5.05;;;;;;;22.38;78.71;101934.88;5068243;28;20040;-79
2022/06/12 10:09:08;;;;;;;26.40;4.45;;;;;;;22.76;76.00;101935.25;5083854;28;20080;-80
2022/06/12 10:12:02;;;;;;;40.00;5.05;;;;;;;23.22;76.92;101931.88;5081897;28;20467;-79
2022/06/12 10:14:35;;;;;;;35.92;4.22;;;;;;;23.73;71.91;101931.53;5078623;28;20040;-80
2022/06/12 10:17:11;;;;;;;31.85;4.68;;;;;;;23.04;71.18;101932.09;5089293;28;20487;-79
2022/06/12 10:20:01;;;;;;;26.52;4.35;;;;;;;23.33;74.83;101927.84;5059398;28;20124;-80
2022/06/12 10:22:35;;;;;;;27.50;3.97;;;;;;;24.01;68.49;101932.78;5084918;28;20028;-79
2022/06/12 10:25:04;;;;;;;19.83;3.00;;;;;;;24.24;69.02;101926.38;5060134;28;20028;-80
2022/06/12 10:27:44;;;;;;;27.30;3.60;;;;;;;24.54;66.00;101924.53;5066327;28;20496;-81
2022/06/12 10:30:38;;;;;;;22.08;3.80;;;;;;;24.08;64.73;101918.06;5063958;28;20032;-80
2022/06/12 10:33:08;;;;;;;28.50;4.13;;;;;;;24.40;64.16;101922.56;5074381;28;20047;-79
2022/06/12 10:35:55;;;;;;;21.48;4.30;;;;;;;24.03;65.54;101910.22;5081172;28;20048;-80
2022/06/12 10:38:23;;;;;;;27.70;4.38;;;;;;;24.81;66.12;101905.44;5083384;28;20035;-80
2022/06/12 10:40:53;;;;;;;24.35;3.47;;;;;;;24.42;62.96;101906.44;5076876;28;20066;-81
2022/06/12 10:43:35;;;;;;;23.70;3.80;;;;;;;24.93;62.11;101911.44;5087895;28;20052;-80
2022/06/12 10:46:15;;;;;;;30.77;4.28;;;;;;;25.00;60.36;101912.41;5081567;28;20036;-81
2022/06/12 10:48:42;;;;;;;26.30;4.03;;;;;;;25.28;59.96;101897.75;5082537;28;20060;-79
2022/06/12 10:51:22;;;;;;;21.38;3.22;;;;;;;25.18;60.07;101913.97;5093584;28;20036;-82
2022/06/12 10:53:59;;;;;;;27.98;4.38;;;;;;;24.91;58.52;101906.03;5083250;28;20036;-82
2022/06/12 10:56:57;;;;;;;22.52;3.67;;;;;;;24.16;64.05;101904.03;5082921;28;20060;-82
2022/06/12 10:59:33;;;;;;;23.27;4.00;;;;;;;23.39;63.86;101908.41;5082504;28;20025;-82
2022/06/12 11:02:07;;;;;;;22.75;4.07;;;;;;;23.82;64.76;101910.84;5073095;28;20029;-81
2022/06/12 11:05:10;;;;;;;24.00;3.72;;;;;;;23.44;62.25;101910.69;5082231;28;20048;-81
2022/06/12 11:08:06;;;;;;;18.38;3.60;;;;;;;23.64;61.57;101897.13;5095032;28;20093;-81
2022/06/12 11:11:03;;;;;;;31.85;4.13;;;;;;;23.83;61.18;101890.25;5097849;28;20044;-81
2022/06/12 11:13:50;;;;;;;24.40;4.45;;;;;;;24.21;60.05;101905.19;5080316;28;20024;-81
2022/06/12 11:16:18;;;;;;;21.38;3.03;;;;;;;24.28;57.66;101905.31;5096560;28;20032;-80
2022/06/12 11:18:56;;;;;;;22.65;4.30;;;;;;;23.80;63.98;101899.84;5088804;28;20480;-80
2022/06/12 11:21:22;;;;;;;29.10;3.47;;;;;;;24.18;64.37;101897.16;5079380;28;20033;-80
2022/06/12 11:24:15;;;;;;;19.80;3.28;;;;;;;24.17;63.21;101902.94;5095196;28;20031;-80
2022/06/12 11:27:05;;;;;;;24.23;4.32;;;;;;;24.74;62.65;101908.13;5069779;28;20036;-81
2022/06/12 11:29:33;;;;;;;27.50;4.60;;;;;;;24.63;61.60;101897.38;5087882;28;20119;-81
2022/06/12 11:32:18;;;;;;;32.13;4.38;;;;;;;24.98;65.45;101892.13;5078734;28;20045;-81
2022/06/12 11:35:02;;;;;;;28.80;4.60;;;;;;;25.07;62.79;101895.69;5097578;28;20579;-82
2022/06/12 11:37:46;;;;;;;25.25;3.33;;;;;;;24.68;59.85;101897.69;5087338;28;20096;-81
2022/06/12 11:40:33;;;;;;;36.38;4.22;;;;;;;24.50;62.08;101886.78;5084640;28;20071;-81
2022/06/12 11:43:20;;;;;;;29.58;3.28;;;;;;;25.17;57.98;101885.09;5062849;28;20500;-80
2022/06/12 11:46:20;;;;;;;20.10;3.92;;;;;;;25.35;62.84;101890.34;5088619;28;20441;-80